HOURLY OBS INDEX

017

Northeast Pastoral

LEIGH CREEK AIRPORT

Site: 017110
Alt: 258.8m
111km SSE of MARREE


  Time     Wind        Temp  DP   Baro     Rain since   Rain past  Vis(m), Cloud(base in m), Weather
  local        km/h                         9am  last   hr   10m    
Mon 07:30    S  7/  9   2.3  2.0  1026.0    0.0   0.0   0.0   0.0   10000 
Mon 08:00    S  9/  9   4.1  4.0  1026.1    0.0   0.0   0.0   0.0   10000 
Mon 08:30    S  4/  7   6.7  6.3  1026.5    0.0   0.0   0.0   0.0   10000 
Mon 09:00    C  0/  6   8.5  6.1  1026.8    0.0   0.0   0.0   0.0   10000 
Mon 09:30    S  6/  7  10.0  5.8  1027.3    0.0   0.0   0.0   0.0   10000 
Mon 10:00  SSW  9/ 13  11.1  5.8  1027.4    0.0   0.0   0.0   0.0   10000 
Mon 10:30  SSW 11/ 15  12.1  5.7  1027.5    0.0   0.0   0.0   0.0   10000 
Mon 11:00    S 11/ 17  13.0  5.7  1027.2    0.0   0.0   0.0   0.0   10000 
Mon 11:30  SSW  9/ 15  13.3  5.5  1026.8    0.0   0.0   0.0   0.0   10000 
Mon 12:00    S  7/ 17  14.1  6.0  1026.6    0.0   0.0   0.0   0.0   10000 
Mon 12:30  SSW 11/ 17  14.4  5.7  1026.1    0.2   0.2   0.2   0.0   10000 

MARREE AERO

Site: 017126
Alt: 50.0m
1km SSE of MARREE


  Time     Wind        Temp  DP   Baro     Rain since   Rain past  Vis(m), Cloud(base in m), Weather
  local        km/h                         9am  last   hr   10m    
Mon 07:30   SE 11/ 11   2.8  2.2  1026.7    0.0   0.0   0.0   0.0   ----- 
Mon 08:00  ESE  9/  9   3.7  3.1  1027.0    0.0   0.0   0.0   0.0   ----- 
Mon 08:30   SE  6/  9   5.8  5.2  1027.4    0.0   0.0   0.0   0.0   ----- 
Mon 09:00  SSE  7/  9   7.6  6.9  1027.6    0.0   0.0   0.0   0.0   ----- 
Mon 09:30    S  9/ 11  10.5  7.4  1028.0    0.0   0.0   0.0   0.0   ----- 
Mon 10:00    S 11/ 13  13.2  7.0  1028.3    0.0   0.0   0.0   0.0   ----- 
Mon 10:30  SSE 13/ 17  14.3  5.9  1027.9    0.0   0.0   0.0   0.0   ----- 
Mon 11:00  SSE 17/ 20  14.8  5.9  1027.6    0.0   0.0   0.0   0.0   ----- 
Mon 11:30  SSE 13/ 20  15.6  5.8  1027.5    0.0   0.0   0.0   0.0   ----- 
Mon 12:00   SE 11/ 17  16.3  5.6  1027.1    0.0   0.0   0.0   0.0   ----- 
Mon 12:30   SE 17/ 22  16.3  4.7  1026.6    0.0   0.0   0.0   0.0   ----- 

MOOMBA AIRPORT

Site: 017123
Alt: 37.8m
66km SW of INNAMINCKA


  Time     Wind        Temp  DP   Baro     Rain since   Rain past  Vis(m), Cloud(base in m), Weather
  local        km/h                         9am  last   hr   10m    
Mon 07:30  WSW 11/ 13   4.2  3.9  1025.7    0.0   0.0   0.0   0.0   10000 
Mon 08:00  WSW  7/  9   4.7  3.5  1026.0    0.0   0.0   0.0   0.0   10000 
Mon 08:30  SSW 13/ 17   7.6  6.2  1026.0    0.0   0.0   0.0   0.0   10000 
Mon 09:00    S 17/ 22   8.5  6.3  1026.2    0.0   0.0   0.0   0.0   10000 
Mon 09:30    S 17/ 22  10.2  6.2  1026.6    0.0   0.0   0.0   0.0   10000 
Mon 10:00    S 17/ 20  12.1  6.2  1026.8    0.0   0.0   0.0   0.0   10000 
Mon 10:30    S 15/ 22  12.7  5.6  1026.8    0.0   0.0   0.0   0.0   10000 
Mon 11:00    S 15/ 20  13.8  5.7  1026.6    0.0   0.0   0.0   0.0   10000 
Mon 11:30    S 17/ 24  14.0  5.4  1026.3    0.0   0.0   0.0   0.0   10000 
Mon 12:00    S 17/ 24  14.5  5.3  1025.9    0.0   0.0   0.0   0.0   10000 
Mon 12:30    S 17/ 24  15.5  4.8  1025.6    0.0   0.0   0.0   0.0   10000 

OODNADATTA AIRPORT

Site: 017043
Alt: 116.5m
1km S of OODNADATTA


  Time     Wind        Temp  DP   Baro     Rain since   Rain past  Vis(m), Cloud(base in m), Weather
  local        km/h                         9am  last   hr   10m    
Mon 07:30    C  0/  0   2.6 -1.7  1026.9    0.0   0.0   0.0   0.0   ----- 
Mon 08:00    C  0/  0   4.6 -0.6  1027.0    0.0   0.0   0.0   0.0   ----- 
Mon 08:30    C  0/  0   4.6 -0.6  1027.6    0.0   0.0   0.0   0.0   ----- 
Mon 09:00    S  2/  6   6.2  0.5  1028.1    0.0   0.0   0.0   0.0   ----- 
Mon 09:30  SSW  6/  9   8.7  2.3  1028.4    0.0   0.0   0.0   0.0   ----- 
Mon 10:00    S  7/ 11  10.4  3.4  1028.4    0.0   0.0   0.0   0.0   ----- 
Mon 10:30  SSE  9/ 13  12.2  4.2  1028.4    0.0   0.0   0.0   0.0   ----- 
Mon 11:00   SE 11/ 13  13.3  4.2  1027.9    0.0   0.0   0.0   0.0   ----- 
Mon 11:30    S  9/ 15  14.9  4.6  1027.8    0.0   0.0   0.0   0.0   ----- 
Mon 12:00    E 13/ 17  15.2  4.3  1027.1    0.0   0.0   0.0   0.0   ----- 
Mon 12:30  ESE 11/ 17  16.0  3.8  1026.7    0.0   0.0   0.0   0.0   -----